createdAt,value
2018-02-11T00:00:52.181Z,1.10
2018-02-11T00:03:18.414Z,1.10
2018-02-11T00:05:44.557Z,1.20
2018-02-11T00:08:10.770Z,1.20
2018-02-11T00:10:36.891Z,1.20
2018-02-11T00:13:03.056Z,1.20
2018-02-11T00:15:29.980Z,1.30
2018-02-11T00:17:56.111Z,1.20
2018-02-11T00:20:22.275Z,1.20
2018-02-11T00:22:49.184Z,1.20
2018-02-11T00:25:15.368Z,1.20
2018-02-11T00:27:41.598Z,1.30
2018-02-11T00:30:07.767Z,1.30
2018-02-11T00:32:33.971Z,1.30
2018-02-11T00:35:00.120Z,1.30
2018-02-11T00:37:32.522Z,1.40
2018-02-11T00:39:59.414Z,1.30
2018-02-11T00:42:25.628Z,1.30
2018-02-11T00:44:51.838Z,1.30
2018-02-11T00:47:17.981Z,1.40
2018-02-11T00:49:44.149Z,1.30
2018-02-11T00:52:10.283Z,1.30
2018-02-11T00:54:36.448Z,1.30
2018-02-11T00:57:03.401Z,1.40
2018-02-11T00:59:29.531Z,1.40
2018-02-11T01:01:55.700Z,1.30
2018-02-11T01:04:21.856Z,1.30
2018-02-11T01:06:48.814Z,1.40
2018-02-11T01:09:14.945Z,1.40
2018-02-11T01:11:41.133Z,1.40
2018-02-11T01:14:07.294Z,1.40
2018-02-11T01:16:34.199Z,1.40
2018-02-11T01:19:00.413Z,1.40
2018-02-11T01:21:26.576Z,1.50
2018-02-11T01:23:53.480Z,1.40
2018-02-11T01:26:19.707Z,1.40
2018-02-11T01:28:45.909Z,1.40
2018-02-11T01:31:12.038Z,1.40
2018-02-11T01:33:38.232Z,1.40
2018-02-11T01:36:05.108Z,1.40
2018-02-11T01:38:31.314Z,1.40
2018-02-11T01:40:58.235Z,1.40
2018-02-11T01:43:24.442Z,1.40
2018-02-11T01:45:50.675Z,1.30
2018-02-11T01:48:16.872Z,1.40
2018-02-11T01:50:43.044Z,1.50
2018-02-11T01:53:10.000Z,1.40
2018-02-11T01:55:36.927Z,1.30
2018-02-11T01:58:03.138Z,1.30
2018-02-11T02:00:29.367Z,1.30
2018-02-11T02:02:55.581Z,1.30
2018-02-11T02:05:21.702Z,1.30
2018-02-11T02:07:47.933Z,1.30
2018-02-11T02:10:14.083Z,1.30
2018-02-11T02:12:40.282Z,1.40
2018-02-11T02:15:06.449Z,1.30
2018-02-11T02:17:33.384Z,1.30
2018-02-11T02:19:59.628Z,1.30
2018-02-11T02:22:26.504Z,1.30
2018-02-11T02:24:53.447Z,1.30
2018-02-11T02:27:19.630Z,1.30
2018-02-11T02:29:45.800Z,1.30
2018-02-11T02:32:12.689Z,1.40
2018-02-11T02:34:38.819Z,1.40
2018-02-11T02:37:05.022Z,1.40
2018-02-11T02:39:31.156Z,1.40
2018-02-11T02:41:57.341Z,1.40
2018-02-11T02:44:24.201Z,1.40
2018-02-11T02:46:50.382Z,1.30
2018-02-11T02:49:16.619Z,1.40
2018-02-11T02:51:43.501Z,1.30
2018-02-11T02:54:09.663Z,1.30
2018-02-11T02:56:35.847Z,1.30
2018-02-11T02:59:02.036Z,1.30
2018-02-11T03:01:28.220Z,1.30
2018-02-11T03:03:54.396Z,1.30
2018-02-11T03:06:21.331Z,1.30
2018-02-11T03:08:47.522Z,1.30
2018-02-11T03:11:13.710Z,1.30
2018-02-11T03:13:40.663Z,1.30
2018-02-11T03:16:07.562Z,1.30
2018-02-11T03:18:33.730Z,1.20
2018-02-11T03:21:00.740Z,1.30
2018-02-11T03:23:26.953Z,1.30
2018-02-11T03:25:53.093Z,1.30
2018-02-11T03:28:19.278Z,1.30
2018-02-11T03:30:45.508Z,1.30
2018-02-11T03:33:11.689Z,1.20
2018-02-11T03:35:37.848Z,1.30
2018-02-11T03:38:04.743Z,1.30
2018-02-11T03:40:30.911Z,1.20
2018-02-11T03:42:57.852Z,1.30
2018-02-11T03:45:24.836Z,1.30
2018-02-11T03:47:50.963Z,1.20
2018-02-11T03:50:17.135Z,1.30
2018-02-11T03:52:44.091Z,1.20
2018-02-11T03:55:11.046Z,1.20
2018-02-11T03:57:38.006Z,1.20
2018-02-11T04:00:04.174Z,1.20
2018-02-11T04:02:30.337Z,1.30
2018-02-11T04:04:56.460Z,1.30
2018-02-11T04:07:23.385Z,1.20
2018-02-11T04:09:49.521Z,1.20
2018-02-11T04:12:15.632Z,1.30
2018-02-11T04:14:41.842Z,1.20
2018-02-11T04:17:08.072Z,1.20
2018-02-11T04:19:34.211Z,1.30
2018-02-11T04:22:00.364Z,1.30
2018-02-11T04:24:26.510Z,1.30
2018-02-11T04:26:53.450Z,1.30
2018-02-11T04:29:20.329Z,1.30
2018-02-11T04:31:46.507Z,1.30
2018-02-11T04:34:13.393Z,1.30
2018-02-11T04:36:39.545Z,1.30
2018-02-11T04:39:05.698Z,1.30
2018-02-11T04:41:32.566Z,1.20
2018-02-11T04:43:59.428Z,1.30
2018-02-11T04:46:25.638Z,1.30
2018-02-11T04:48:52.561Z,1.30
2018-02-11T04:51:19.478Z,1.30
2018-02-11T04:53:45.654Z,1.30
2018-02-11T04:56:12.575Z,1.40
2018-02-11T04:58:39.485Z,1.30
2018-02-11T05:01:05.736Z,1.30
2018-02-11T05:03:32.674Z,1.30
2018-02-11T05:05:58.862Z,1.30
2018-02-11T05:08:25.054Z,1.30
2018-02-11T05:10:51.967Z,1.30
2018-02-11T05:13:18.107Z,1.30
2018-02-11T05:15:44.240Z,1.30
2018-02-11T05:18:10.389Z,1.30
2018-02-11T05:20:37.310Z,1.30
2018-02-11T05:23:04.231Z,1.30
2018-02-11T05:25:30.407Z,1.30
2018-02-11T05:27:57.301Z,1.30
2018-02-11T05:30:23.480Z,1.30
2018-02-11T05:32:50.381Z,1.20
2018-02-11T05:35:16.576Z,1.20
2018-02-11T05:37:42.751Z,1.30
2018-02-11T05:40:09.668Z,1.30
2018-02-11T05:42:35.804Z,1.30
2018-02-11T05:45:01.983Z,1.40
2018-02-11T05:47:28.171Z,1.30
2018-02-11T05:49:54.348Z,1.20
2018-02-11T05:52:20.575Z,1.30
2018-02-11T05:54:46.731Z,1.10
2018-02-11T05:57:12.877Z,1.10
2018-02-11T05:59:39.023Z,1.10
2018-02-11T06:02:05.945Z,1.00
2018-02-11T06:04:32.138Z,0.90
2018-02-11T06:06:58.322Z,1.00
2018-02-11T06:09:25.302Z,1.10
2018-02-11T06:11:51.505Z,1.10
2018-02-11T06:14:18.390Z,1.10
2018-02-11T06:16:44.520Z,1.10
2018-02-11T06:19:10.628Z,1.20
2018-02-11T06:21:36.874Z,1.20
2018-02-11T06:24:03.135Z,1.10
2018-02-11T06:26:31.013Z,1.20
2018-02-11T06:28:57.953Z,1.10
2018-02-11T06:31:24.121Z,1.10
2018-02-11T06:33:50.300Z,1.10
2018-02-11T06:36:17.060Z,1.20
2018-02-11T06:38:44.074Z,1.20
2018-02-11T06:41:10.253Z,1.20
2018-02-11T06:43:36.411Z,1.30
2018-02-11T06:46:02.631Z,1.30
2018-02-11T06:48:28.850Z,1.30
2018-02-11T06:50:55.045Z,1.30
2018-02-11T06:53:21.968Z,1.40
2018-02-11T06:55:48.109Z,1.30
2018-02-11T06:58:15.014Z,1.50
2018-02-11T07:00:41.144Z,1.40
2018-02-11T07:03:07.309Z,1.40
2018-02-11T07:05:33.477Z,1.50
2018-02-11T07:07:59.656Z,1.40
2018-02-11T07:10:25.856Z,1.40
2018-02-11T07:12:52.045Z,1.40
2018-02-11T07:15:18.289Z,1.30
2018-02-11T07:17:44.444Z,1.30
2018-02-11T07:20:10.627Z,1.40
2018-02-11T07:22:36.991Z,1.40
2018-02-11T07:25:03.228Z,1.40
2018-02-11T07:27:29.396Z,1.50
2018-02-11T07:29:56.313Z,1.40
2018-02-11T07:32:22.424Z,1.40
2018-02-11T07:34:48.612Z,1.50
2018-02-11T07:37:14.866Z,1.50
2018-02-11T07:39:41.074Z,1.60
2018-02-11T07:42:07.276Z,1.60
2018-02-11T07:44:34.151Z,1.80
2018-02-11T07:47:00.306Z,1.80
2018-02-11T07:49:26.513Z,1.80
2018-02-11T07:51:52.663Z,1.80
2018-02-11T07:54:18.886Z,1.80
2018-02-11T07:56:45.097Z,1.80
2018-02-11T07:59:11.310Z,1.80
2018-02-11T08:01:37.469Z,1.80
2018-02-11T08:04:03.660Z,1.80
2018-02-11T08:06:29.825Z,1.90
2018-02-11T08:08:56.592Z,1.80
2018-02-11T08:11:23.525Z,1.80
2018-02-11T08:13:49.745Z,1.80
2018-02-11T08:16:15.927Z,1.90
2018-02-11T08:18:42.041Z,1.90
2018-02-11T08:21:08.943Z,2.10
2018-02-11T08:23:35.124Z,2.00
2018-02-11T08:26:01.348Z,2.10
2018-02-11T08:28:27.522Z,2.10
2018-02-11T08:30:53.691Z,2.10
2018-02-11T08:33:20.631Z,2.10
2018-02-11T08:35:47.573Z,2.00
2018-02-11T08:38:14.467Z,2.00
2018-02-11T08:40:40.622Z,1.90
2018-02-11T08:43:06.828Z,2.10
2018-02-11T08:45:32.973Z,2.20
2018-02-11T08:47:59.201Z,2.20
2018-02-11T08:50:26.124Z,2.30
2018-02-11T08:52:52.332Z,2.30
2018-02-11T08:55:18.530Z,2.20
2018-02-11T08:57:45.529Z,2.20
2018-02-11T09:00:11.728Z,2.10
2018-02-11T09:02:37.871Z,2.20
2018-02-11T09:05:04.092Z,2.00
2018-02-11T09:07:30.269Z,2.10
2018-02-11T09:09:56.414Z,2.00
2018-02-11T09:12:23.279Z,1.80
2018-02-11T09:14:49.431Z,1.80
2018-02-11T09:17:15.749Z,1.90
2018-02-11T09:19:41.944Z,1.90
2018-02-11T09:22:08.141Z,1.90
2018-02-11T09:24:35.081Z,2.10
2018-02-11T09:27:01.241Z,2.10
2018-02-11T09:29:28.190Z,2.20
2018-02-11T09:31:54.404Z,2.20
2018-02-11T09:34:21.308Z,2.20
2018-02-11T09:36:47.471Z,2.20
2018-02-11T09:39:13.601Z,2.20
2018-02-11T09:41:40.487Z,2.00
2018-02-11T09:44:06.695Z,2.00
2018-02-11T09:46:32.926Z,1.90
2018-02-11T09:48:59.148Z,2.00
2018-02-11T09:51:25.385Z,2.00
2018-02-11T09:53:51.561Z,1.90
2018-02-11T09:56:17.818Z,1.80
2018-02-11T09:58:44.729Z,1.90
2018-02-11T10:01:10.910Z,1.80
2018-02-11T10:03:37.118Z,2.00
2018-02-11T10:06:04.074Z,1.90
2018-02-11T10:08:30.284Z,1.90
2018-02-11T10:10:57.206Z,1.80
2018-02-11T10:13:23.390Z,1.80
2018-02-11T10:15:49.608Z,1.80
2018-02-11T10:18:15.822Z,1.90
2018-02-11T10:20:41.969Z,1.90
2018-02-11T10:23:08.154Z,1.70
2018-02-11T10:25:35.086Z,1.60
2018-02-11T10:28:01.342Z,1.60
2018-02-11T10:30:28.260Z,1.50
2018-02-11T10:32:55.130Z,1.50
2018-02-11T10:35:22.102Z,1.40
2018-02-11T10:37:48.263Z,1.40
2018-02-11T10:40:14.506Z,1.50
2018-02-11T10:42:40.701Z,1.60
2018-02-11T10:45:06.910Z,1.50
2018-02-11T10:47:33.130Z,1.50
2018-02-11T10:49:59.366Z,1.60
2018-02-11T10:52:25.567Z,1.50
2018-02-11T10:54:52.551Z,1.50
2018-02-11T10:57:18.733Z,1.50
2018-02-11T10:59:45.676Z,1.60
2018-02-11T11:02:12.558Z,1.70
2018-02-11T11:04:38.770Z,1.70
2018-02-11T11:07:04.991Z,1.70
2018-02-11T11:09:31.941Z,1.60
2018-02-11T11:11:59.690Z,1.90
2018-02-11T11:14:26.635Z,1.90
2018-02-11T11:16:53.541Z,2.00
2018-02-11T11:19:19.771Z,2.00
2018-02-11T11:21:45.948Z,1.90
2018-02-11T11:24:12.854Z,1.80
2018-02-11T11:26:39.061Z,1.70
2018-02-11T11:29:05.274Z,1.80
2018-02-11T11:31:31.449Z,1.90
2018-02-11T11:33:57.637Z,1.90
2018-02-11T11:36:23.854Z,1.90
2018-02-11T11:38:49.986Z,2.00
2018-02-11T11:41:16.182Z,2.10
2018-02-11T11:43:43.079Z,2.00
2018-02-11T11:46:09.262Z,2.00
2018-02-11T11:48:35.580Z,2.00
2018-02-11T11:51:02.542Z,1.70
2018-02-11T11:53:28.733Z,1.70
2018-02-11T11:55:55.666Z,1.50
2018-02-11T11:58:21.870Z,1.50
2018-02-11T12:00:48.081Z,1.60
2018-02-11T12:03:14.262Z,1.60
2018-02-11T12:05:40.466Z,1.80
2018-02-11T12:08:06.647Z,1.60
2018-02-11T12:10:32.943Z,1.70
2018-02-11T12:12:59.876Z,1.90
2018-02-11T12:15:26.121Z,1.90
2018-02-11T12:17:53.082Z,2.00
2018-02-11T12:20:20.035Z,1.90
2018-02-11T12:22:46.994Z,2.00
2018-02-11T12:25:13.160Z,2.00
2018-02-11T12:27:39.341Z,2.10
2018-02-11T12:30:06.275Z,2.00
2018-02-11T12:32:33.215Z,2.10
2018-02-11T12:35:00.132Z,2.10
2018-02-11T12:37:26.365Z,2.10
2018-02-11T12:39:53.334Z,2.20
2018-02-11T12:42:20.285Z,2.30
2018-02-11T12:44:47.219Z,2.10
2018-02-11T12:47:13.408Z,2.10
2018-02-11T12:49:39.617Z,2.10
2018-02-11T12:52:07.507Z,2.20
2018-02-11T12:54:33.705Z,2.20
2018-02-11T12:56:59.903Z,2.30
2018-02-11T12:59:26.855Z,2.20
2018-02-11T13:01:53.802Z,2.20
2018-02-11T13:04:20.755Z,2.20
2018-02-11T13:06:46.972Z,2.20
2018-02-11T13:09:13.946Z,2.00
2018-02-11T13:11:40.159Z,2.00
2018-02-11T13:14:06.379Z,2.10
2018-02-11T13:16:33.328Z,2.10
2018-02-11T13:18:59.542Z,2.00
2018-02-11T13:21:26.491Z,2.10
2018-02-11T13:23:53.446Z,2.10
2018-02-11T13:26:19.595Z,2.10
2018-02-11T13:28:45.768Z,2.20
2018-02-11T13:31:11.950Z,2.10
2018-02-11T13:33:38.169Z,2.00
2018-02-11T13:36:04.361Z,2.00
2018-02-11T13:38:31.262Z,2.20
2018-02-11T13:40:57.531Z,2.10
2018-02-11T13:43:23.728Z,2.20
2018-02-11T13:45:49.947Z,2.20
2018-02-11T13:48:16.099Z,2.20
2018-02-11T13:50:42.320Z,2.20
2018-02-11T13:53:08.495Z,2.10
2018-02-11T13:55:35.365Z,2.10
2018-02-11T13:58:01.585Z,2.10
2018-02-11T14:00:27.784Z,2.10
2018-02-11T14:02:54.712Z,2.20
2018-02-11T14:05:20.929Z,2.20
2018-02-11T14:07:47.143Z,2.20
2018-02-11T14:10:13.333Z,2.10
2018-02-11T14:12:39.505Z,2.10
2018-02-11T14:15:05.667Z,2.10
2018-02-11T14:17:32.601Z,2.10
2018-02-11T14:19:59.564Z,2.10
2018-02-11T14:22:26.557Z,2.10
2018-02-11T14:24:52.719Z,2.10
2018-02-11T14:27:19.624Z,2.20
2018-02-11T14:29:45.871Z,2.20
2018-02-11T14:32:12.086Z,2.30
2018-02-11T14:34:38.226Z,2.30
2018-02-11T14:37:04.385Z,2.30
2018-02-11T14:39:31.337Z,2.20
2018-02-11T14:41:57.554Z,2.20
2018-02-11T14:44:24.547Z,2.30
2018-02-11T14:46:50.777Z,2.30
2018-02-11T14:49:17.014Z,2.30
2018-02-11T14:51:43.212Z,2.20
2018-02-11T14:54:09.428Z,2.30
2018-02-11T14:56:35.664Z,2.40
2018-02-11T14:59:01.833Z,2.40
2018-02-11T15:01:28.001Z,2.30
2018-02-11T15:03:54.877Z,2.30
2018-02-11T15:06:21.070Z,2.30
2018-02-11T15:08:48.023Z,2.30
2018-02-11T15:11:14.171Z,2.20
2018-02-11T15:13:40.396Z,2.30
2018-02-11T15:16:06.597Z,2.30
2018-02-11T15:18:33.536Z,2.40
2018-02-11T15:21:00.464Z,2.30
2018-02-11T15:23:27.381Z,2.30
2018-02-11T15:25:53.561Z,2.30
2018-02-11T15:28:20.570Z,2.40
2018-02-11T15:30:46.748Z,2.40
2018-02-11T15:33:12.901Z,2.40
2018-02-11T15:35:39.119Z,2.50
2018-02-11T15:38:05.299Z,2.50
2018-02-11T15:40:32.238Z,2.50
2018-02-11T15:42:59.203Z,2.60
2018-02-11T15:45:26.160Z,2.60
2018-02-11T15:47:52.342Z,2.60
2018-02-11T15:50:18.569Z,2.60
2018-02-11T15:52:44.749Z,2.60
2018-02-11T15:55:10.906Z,2.60
2018-02-11T15:57:37.215Z,2.60
2018-02-11T16:00:03.486Z,2.60
2018-02-11T16:02:29.699Z,2.60
2018-02-11T16:04:55.882Z,2.60
2018-02-11T16:07:22.810Z,2.60
2018-02-11T16:09:49.696Z,2.70
2018-02-11T16:12:15.901Z,2.70
2018-02-11T16:14:42.132Z,2.60
2018-02-11T16:17:08.342Z,2.60
2018-02-11T16:19:35.317Z,2.60
2018-02-11T16:22:01.570Z,2.60
2018-02-11T16:24:27.790Z,2.60
2018-02-11T16:26:53.990Z,2.60
2018-02-11T16:29:20.203Z,2.60
2018-02-11T16:31:47.188Z,2.60
2018-02-11T16:34:13.463Z,2.50
2018-02-11T16:36:39.725Z,2.60
2018-02-11T16:39:05.943Z,2.60
2018-02-11T16:41:32.123Z,2.50
2018-02-11T16:43:58.266Z,2.50
2018-02-11T16:46:25.186Z,2.50
2018-02-11T16:48:51.341Z,2.50
2018-02-11T16:51:19.339Z,2.50
2018-02-11T16:53:46.293Z,2.50
2018-02-11T16:56:12.509Z,2.50
2018-02-11T16:58:39.483Z,2.50
2018-02-11T17:01:05.692Z,2.50
2018-02-11T17:03:31.905Z,2.50
2018-02-11T17:05:58.870Z,2.50
2018-02-11T17:08:25.104Z,2.50
2018-02-11T17:10:51.405Z,2.50
2018-02-11T17:13:17.587Z,2.50
2018-02-11T17:15:43.766Z,2.50
2018-02-11T17:18:10.748Z,2.50
2018-02-11T17:20:36.981Z,2.50
2018-02-11T17:23:03.217Z,2.60
2018-02-11T17:25:29.403Z,2.50
2018-02-11T17:27:56.313Z,2.60
2018-02-11T17:30:22.467Z,2.50
2018-02-11T17:32:49.372Z,2.60
2018-02-11T17:35:15.628Z,2.50
2018-02-11T17:37:42.536Z,2.60
2018-02-11T17:40:08.697Z,2.50
2018-02-11T17:42:35.621Z,2.50
2018-02-11T17:45:01.806Z,2.50
2018-02-11T17:47:27.999Z,2.50
2018-02-11T17:49:55.302Z,2.50
2018-02-11T17:52:21.461Z,2.50
2018-02-11T17:54:47.608Z,2.50
2018-02-11T17:57:14.549Z,2.60
2018-02-11T17:59:40.722Z,2.50
2018-02-11T18:02:06.921Z,2.60
2018-02-11T18:04:33.827Z,2.50
2018-02-11T18:06:59.957Z,2.50
2018-02-11T18:09:26.183Z,2.50
2018-02-11T18:11:53.129Z,2.50
2018-02-11T18:14:20.822Z,2.50
2018-02-11T18:16:47.757Z,2.50
2018-02-11T18:19:14.694Z,2.40
2018-02-11T18:21:40.876Z,2.40
2018-02-11T18:24:07.052Z,2.40
2018-02-11T18:26:34.023Z,2.50
2018-02-11T18:29:00.937Z,2.50
2018-02-11T18:31:27.886Z,2.50
2018-02-11T18:33:54.854Z,2.40
2018-02-11T18:36:21.113Z,2.40
2018-02-11T18:38:47.332Z,2.40
2018-02-11T18:41:13.537Z,2.40
2018-02-11T18:43:40.499Z,2.40
2018-02-11T18:46:06.738Z,2.30
2018-02-11T18:48:32.954Z,2.30
2018-02-11T18:50:59.210Z,2.30
2018-02-11T18:53:25.473Z,2.30
2018-02-11T18:55:51.677Z,2.30
2018-02-11T18:58:17.858Z,2.30
2018-02-11T19:00:44.068Z,2.20
2018-02-11T19:03:10.991Z,2.20
2018-02-11T19:05:37.169Z,2.20
2018-02-11T19:08:03.411Z,2.20
2018-02-11T19:10:29.597Z,2.20
2018-02-11T19:12:56.603Z,2.20
2018-02-11T19:15:22.765Z,2.20
2018-02-11T19:17:49.721Z,2.30
2018-02-11T19:20:16.645Z,2.30
2018-02-11T19:22:42.893Z,2.30
2018-02-11T19:25:09.821Z,2.30
2018-02-11T19:27:36.763Z,2.30
2018-02-11T19:30:03.031Z,2.30
2018-02-11T19:32:29.306Z,2.40
2018-02-11T19:34:55.455Z,2.40
2018-02-11T19:37:22.428Z,2.30
2018-02-11T19:39:48.651Z,2.30
2018-02-11T19:42:14.833Z,2.30
2018-02-11T19:44:41.054Z,2.40
2018-02-11T19:47:07.294Z,2.30
2018-02-11T19:49:33.515Z,2.30
2018-02-11T19:51:59.702Z,2.30
2018-02-11T19:54:25.873Z,2.30
2018-02-11T19:56:52.402Z,2.30
2018-02-11T19:59:18.578Z,2.30
2018-02-11T20:01:48.470Z,2.30
2018-02-11T20:04:15.760Z,2.30
2018-02-11T20:06:43.740Z,2.40
2018-02-11T20:09:10.046Z,2.40
2018-02-11T20:11:36.328Z,2.40
2018-02-11T20:14:02.537Z,2.40
2018-02-11T20:16:28.756Z,2.50
2018-02-11T20:18:55.038Z,2.50
2018-02-11T20:21:22.022Z,2.50
2018-02-11T20:23:48.261Z,2.50
2018-02-11T20:26:14.507Z,2.50
2018-02-11T20:28:40.714Z,2.50
2018-02-11T20:31:06.918Z,2.60
2018-02-11T20:33:33.183Z,2.60
2018-02-11T20:35:59.307Z,2.60
2018-02-11T20:38:25.566Z,2.60
2018-02-11T20:40:51.794Z,2.60
2018-02-11T20:43:18.019Z,2.70
2018-02-11T20:45:44.230Z,2.60
2018-02-11T20:48:10.455Z,2.60
2018-02-11T20:50:36.704Z,2.60
2018-02-11T20:53:02.884Z,2.50
2018-02-11T20:55:29.124Z,2.60
2018-02-11T20:57:55.336Z,2.60
2018-02-11T21:00:21.531Z,2.60
2018-02-11T21:02:47.750Z,2.60
2018-02-11T21:05:14.694Z,2.60
2018-02-11T21:07:41.665Z,2.60
2018-02-11T21:10:08.560Z,2.60
2018-02-11T21:12:34.703Z,2.50
2018-02-11T21:15:00.940Z,2.50
2018-02-11T21:17:27.915Z,2.50
2018-02-11T21:19:54.191Z,2.50
2018-02-11T21:22:20.348Z,2.50
2018-02-11T21:24:46.569Z,2.50
2018-02-11T21:27:13.513Z,2.50
2018-02-11T21:29:39.655Z,2.50
2018-02-11T21:32:05.923Z,2.50
2018-02-11T21:34:32.161Z,2.50
2018-02-11T21:36:58.393Z,2.40
2018-02-11T21:39:24.632Z,2.50
2018-02-11T21:41:50.762Z,2.50
2018-02-11T21:44:16.931Z,2.50
2018-02-11T21:46:43.893Z,2.60
2018-02-11T21:49:10.800Z,2.50
2018-02-11T21:51:36.928Z,2.50
2018-02-11T21:54:03.179Z,2.50
2018-02-11T21:56:30.117Z,2.40
2018-02-11T21:58:57.089Z,2.40
2018-02-11T22:01:23.299Z,2.40
2018-02-11T22:03:50.312Z,2.40
2018-02-11T22:06:16.499Z,2.40
2018-02-11T22:08:42.701Z,2.40
2018-02-11T22:11:09.594Z,2.40
2018-02-11T22:13:35.783Z,2.40
2018-02-11T22:16:02.726Z,2.40
2018-02-11T22:18:28.911Z,2.40
2018-02-11T22:20:55.127Z,2.40
2018-02-11T22:23:21.267Z,2.40
2018-02-11T22:25:47.481Z,2.50
2018-02-11T22:28:13.679Z,2.40
2018-02-11T22:30:39.815Z,2.40
2018-02-11T22:33:05.977Z,2.40
2018-02-11T22:35:32.121Z,2.40
2018-02-11T22:37:59.024Z,2.40
2018-02-11T22:40:25.232Z,2.40
2018-02-11T22:42:51.426Z,2.50
2018-02-11T22:45:18.398Z,2.50
2018-02-11T22:47:44.631Z,2.50
2018-02-11T22:50:10.794Z,2.40
2018-02-11T22:52:36.965Z,2.50
2018-02-11T22:55:03.853Z,2.40
2018-02-11T22:57:30.032Z,2.40
2018-02-11T22:59:56.971Z,2.40
2018-02-11T23:02:23.883Z,2.40
2018-02-11T23:04:50.045Z,2.40
2018-02-11T23:07:16.978Z,2.40
2018-02-11T23:09:44.222Z,2.40
2018-02-11T23:12:11.082Z,2.40
2018-02-11T23:14:37.954Z,2.50
2018-02-11T23:17:04.161Z,2.50
2018-02-11T23:19:43.355Z,2.50
2018-02-11T23:22:09.574Z,2.40
2018-02-11T23:24:35.689Z,2.50
2018-02-11T23:27:01.864Z,2.50
2018-02-11T23:29:28.009Z,2.50
2018-02-11T23:31:54.895Z,2.50
2018-02-11T23:34:21.105Z,2.50
2018-02-11T23:36:47.252Z,2.50
2018-02-11T23:39:13.427Z,2.50
2018-02-11T23:41:40.386Z,2.50
2018-02-11T23:44:06.539Z,2.50
2018-02-11T23:46:32.720Z,2.50
2018-02-11T23:48:59.593Z,2.60
2018-02-11T23:51:25.723Z,2.60
2018-02-11T23:53:51.917Z,2.60
2018-02-11T23:56:18.844Z,2.60
2018-02-11T23:58:45.041Z,2.60
